EYE weather

Eagle Creek Airpark
Indianapolis, Indiana, United States

Public forecast

Using degrees Fahrenheit for public forecast. Weather courtesy of forecast.io.

METAR (pilot weather report)

Retrieved 2019/05/20 06:53 UTC (1 hour ago):

KEYE 200653Z AUTO 28012G18KT 10SM CLR 16/10 A2989 RMK AO2 SLP119 T01560100

TAF (pilot weather forecast)

Closest forecast is Indianapolis International Airport, 6.8 nm (12.6 km) S. Retrieved 2019/05/20 06:22 UTC (2 hours ago):

TAF KIND 200520Z 2006/2112 24007KT P6SM FEW250 FM201500 29010KT P6SM BKN050 FM201600 29010KT P6SM SCT028 FM202100 32009KT P6SM SCT080 FM210900 05006KT P6SM BKN180